sensor_id;sensor_type;location;lat;lon;timestamp;P1;durP1;ratioP1;P2;durP2;ratioP2
25237;SDS011;13185;50.872;5.306;2024-02-14T00:01:50;4.45;;;0.90;;
25237;SDS011;13185;50.872;5.306;2024-02-14T00:04:16;1.30;;;0.70;;
25237;SDS011;13185;50.872;5.306;2024-02-14T00:06:41;2.33;;;0.80;;
25237;SDS011;13185;50.872;5.306;2024-02-14T00:09:08;1.92;;;0.70;;
25237;SDS011;13185;50.872;5.306;2024-02-14T00:11:33;2.03;;;0.90;;
25237;SDS011;13185;50.872;5.306;2024-02-14T00:13:59;1.98;;;1.08;;
25237;SDS011;13185;50.872;5.306;2024-02-14T00:16:25;2.92;;;0.90;;
25237;SDS011;13185;50.872;5.306;2024-02-14T00:18:55;2.33;;;1.00;;
25237;SDS011;13185;50.872;5.306;2024-02-14T00:21:22;4.63;;;1.10;;
25237;SDS011;13185;50.872;5.306;2024-02-14T00:23:48;2.75;;;1.63;;
25237;SDS011;13185;50.872;5.306;2024-02-14T00:26:13;2.40;;;1.00;;
25237;SDS011;13185;50.872;5.306;2024-02-14T00:28:38;1.95;;;1.00;;
25237;SDS011;13185;50.872;5.306;2024-02-14T00:31:04;3.05;;;0.82;;
25237;SDS011;13185;50.872;5.306;2024-02-14T00:33:31;1.98;;;0.70;;
25237;SDS011;13185;50.872;5.306;2024-02-14T00:35:56;1.92;;;0.70;;
25237;SDS011;13185;50.872;5.306;2024-02-14T00:38:22;2.13;;;0.90;;
25237;SDS011;13185;50.872;5.306;2024-02-14T00:40:47;2.33;;;0.70;;
25237;SDS011;13185;50.872;5.306;2024-02-14T00:43:13;1.55;;;0.90;;
25237;SDS011;13185;50.872;5.306;2024-02-14T00:45:39;1.42;;;0.90;;
25237;SDS011;13185;50.872;5.306;2024-02-14T00:48:04;0.90;;;0.70;;
25237;SDS011;13185;50.872;5.306;2024-02-14T00:50:32;1.58;;;0.80;;
25237;SDS011;13185;50.872;5.306;2024-02-14T00:52:58;1.20;;;0.82;;
25237;SDS011;13185;50.872;5.306;2024-02-14T00:55:24;1.40;;;0.80;;
25237;SDS011;13185;50.872;5.306;2024-02-14T00:57:50;1.83;;;1.15;;
25237;SDS011;13185;50.872;5.306;2024-02-14T01:00:16;2.38;;;1.15;;
25237;SDS011;13185;50.872;5.306;2024-02-14T01:02:42;3.15;;;0.80;;
25237;SDS011;13185;50.872;5.306;2024-02-14T01:05:08;3.58;;;0.85;;
25237;SDS011;13185;50.872;5.306;2024-02-14T01:07:34;3.05;;;1.20;;
25237;SDS011;13185;50.872;5.306;2024-02-14T01:10:00;1.38;;;0.85;;
25237;SDS011;13185;50.872;5.306;2024-02-14T01:12:25;4.00;;;1.48;;
25237;SDS011;13185;50.872;5.306;2024-02-14T01:14:51;4.03;;;0.82;;
25237;SDS011;13185;50.872;5.306;2024-02-14T01:17:16;1.48;;;0.80;;
25237;SDS011;13185;50.872;5.306;2024-02-14T01:19:42;2.47;;;0.88;;
25237;SDS011;13185;50.872;5.306;2024-02-14T01:22:08;1.48;;;1.35;;
25237;SDS011;13185;50.872;5.306;2024-02-14T01:24:34;3.50;;;0.93;;
25237;SDS011;13185;50.872;5.306;2024-02-14T01:27:00;2.03;;;1.25;;
25237;SDS011;13185;50.872;5.306;2024-02-14T01:29:26;2.30;;;1.10;;
25237;SDS011;13185;50.872;5.306;2024-02-14T01:31:52;2.25;;;0.95;;
25237;SDS011;13185;50.872;5.306;2024-02-14T01:34:17;4.18;;;1.23;;
25237;SDS011;13185;50.872;5.306;2024-02-14T01:36:43;2.25;;;0.95;;
25237;SDS011;13185;50.872;5.306;2024-02-14T01:39:08;1.75;;;1.05;;
25237;SDS011;13185;50.872;5.306;2024-02-14T01:41:43;1.88;;;0.90;;
25237;SDS011;13185;50.872;5.306;2024-02-14T01:44:11;2.70;;;1.38;;
25237;SDS011;13185;50.872;5.306;2024-02-14T01:46:36;2.38;;;1.02;;
25237;SDS011;13185;50.872;5.306;2024-02-14T01:49:02;1.95;;;1.10;;
25237;SDS011;13185;50.872;5.306;2024-02-14T01:51:28;1.95;;;0.93;;
25237;SDS011;13185;50.872;5.306;2024-02-14T01:53:55;2.42;;;1.00;;
25237;SDS011;13185;50.872;5.306;2024-02-14T01:56:21;2.05;;;0.90;;
25237;SDS011;13185;50.872;5.306;2024-02-14T01:58:46;1.85;;;1.27;;
25237;SDS011;13185;50.872;5.306;2024-02-14T02:01:12;2.28;;;1.20;;
25237;SDS011;13185;50.872;5.306;2024-02-14T02:03:38;1.65;;;1.00;;
25237;SDS011;13185;50.872;5.306;2024-02-14T02:06:05;1.67;;;1.38;;
25237;SDS011;13185;50.872;5.306;2024-02-14T02:08:31;2.10;;;1.15;;
25237;SDS011;13185;50.872;5.306;2024-02-14T02:10:57;2.17;;;1.33;;
25237;SDS011;13185;50.872;5.306;2024-02-14T02:13:23;1.80;;;1.00;;
25237;SDS011;13185;50.872;5.306;2024-02-14T02:15:51;2.22;;;1.10;;
25237;SDS011;13185;50.872;5.306;2024-02-14T02:18:19;2.78;;;1.30;;
25237;SDS011;13185;50.872;5.306;2024-02-14T02:20:45;2.63;;;1.25;;
25237;SDS011;13185;50.872;5.306;2024-02-14T02:23:11;5.75;;;1.30;;
25237;SDS011;13185;50.872;5.306;2024-02-14T02:25:40;2.65;;;1.30;;
25237;SDS011;13185;50.872;5.306;2024-02-14T02:28:06;3.30;;;1.60;;
25237;SDS011;13185;50.872;5.306;2024-02-14T02:30:34;3.03;;;1.52;;
25237;SDS011;13185;50.872;5.306;2024-02-14T02:33:02;3.75;;;1.38;;
25237;SDS011;13185;50.872;5.306;2024-02-14T02:35:29;2.63;;;1.65;;
25237;SDS011;13185;50.872;5.306;2024-02-14T02:37:54;3.05;;;1.48;;
25237;SDS011;13185;50.872;5.306;2024-02-14T02:40:20;2.30;;;1.70;;
25237;SDS011;13185;50.872;5.306;2024-02-14T02:42:47;4.78;;;1.50;;
25237;SDS011;13185;50.872;5.306;2024-02-14T02:45:12;3.00;;;1.50;;
25237;SDS011;13185;50.872;5.306;2024-02-14T02:47:38;3.50;;;1.48;;
25237;SDS011;13185;50.872;5.306;2024-02-14T02:50:05;3.40;;;1.67;;
25237;SDS011;13185;50.872;5.306;2024-02-14T02:52:31;2.40;;;1.30;;
25237;SDS011;13185;50.872;5.306;2024-02-14T02:54:57;3.28;;;1.50;;
25237;SDS011;13185;50.872;5.306;2024-02-14T02:57:22;6.03;;;2.00;;
25237;SDS011;13185;50.872;5.306;2024-02-14T02:59:48;5.65;;;1.38;;
25237;SDS011;13185;50.872;5.306;2024-02-14T03:02:16;3.53;;;1.50;;
25237;SDS011;13185;50.872;5.306;2024-02-14T03:04:44;3.58;;;1.60;;
25237;SDS011;13185;50.872;5.306;2024-02-14T03:07:10;1.73;;;1.50;;
25237;SDS011;13185;50.872;5.306;2024-02-14T03:09:36;5.47;;;1.60;;
25237;SDS011;13185;50.872;5.306;2024-02-14T03:12:02;2.83;;;1.65;;
25237;SDS011;13185;50.872;5.306;2024-02-14T03:14:31;2.53;;;1.35;;
25237;SDS011;13185;50.872;5.306;2024-02-14T03:17:04;2.85;;;1.55;;
25237;SDS011;13185;50.872;5.306;2024-02-14T03:19:30;3.42;;;1.63;;
25237;SDS011;13185;50.872;5.306;2024-02-14T03:21:55;3.10;;;1.67;;
25237;SDS011;13185;50.872;5.306;2024-02-14T03:24:22;2.40;;;1.42;;
25237;SDS011;13185;50.872;5.306;2024-02-14T03:26:50;2.42;;;1.77;;
25237;SDS011;13185;50.872;5.306;2024-02-14T03:29:19;2.25;;;1.63;;
25237;SDS011;13185;50.872;5.306;2024-02-14T03:31:47;4.97;;;1.83;;
25237;SDS011;13185;50.872;5.306;2024-02-14T03:34:13;2.80;;;1.65;;
25237;SDS011;13185;50.872;5.306;2024-02-14T03:36:39;2.35;;;1.50;;
25237;SDS011;13185;50.872;5.306;2024-02-14T03:39:05;2.75;;;1.63;;
25237;SDS011;13185;50.872;5.306;2024-02-14T03:41:31;3.17;;;1.90;;
25237;SDS011;13185;50.872;5.306;2024-02-14T03:43:57;2.35;;;1.65;;
25237;SDS011;13185;50.872;5.306;2024-02-14T03:46:28;3.10;;;1.65;;
25237;SDS011;13185;50.872;5.306;2024-02-14T03:48:54;4.13;;;1.50;;
25237;SDS011;13185;50.872;5.306;2024-02-14T03:51:20;2.92;;;1.67;;
25237;SDS011;13185;50.872;5.306;2024-02-14T03:53:48;3.90;;;1.90;;
25237;SDS011;13185;50.872;5.306;2024-02-14T03:56:14;3.40;;;1.63;;
25237;SDS011;13185;50.872;5.306;2024-02-14T03:58:41;4.35;;;2.30;;
25237;SDS011;13185;50.872;5.306;2024-02-14T04:01:07;3.08;;;1.90;;
25237;SDS011;13185;50.872;5.306;2024-02-14T04:03:33;3.08;;;1.95;;
25237;SDS011;13185;50.872;5.306;2024-02-14T04:05:58;3.55;;;1.80;;
25237;SDS011;13185;50.872;5.306;2024-02-14T04:08:24;3.80;;;1.50;;
25237;SDS011;13185;50.872;5.306;2024-02-14T04:10:49;2.50;;;1.42;;
25237;SDS011;13185;50.872;5.306;2024-02-14T04:13:15;3.88;;;1.55;;
25237;SDS011;13185;50.872;5.306;2024-02-14T04:15:41;4.13;;;1.77;;
25237;SDS011;13185;50.872;5.306;2024-02-14T04:18:08;4.50;;;1.70;;
25237;SDS011;13185;50.872;5.306;2024-02-14T04:20:34;4.82;;;1.75;;
25237;SDS011;13185;50.872;5.306;2024-02-14T04:22:59;2.15;;;1.63;;
25237;SDS011;13185;50.872;5.306;2024-02-14T04:25:25;3.22;;;1.80;;
25237;SDS011;13185;50.872;5.306;2024-02-14T04:27:52;5.03;;;1.90;;
25237;SDS011;13185;50.872;5.306;2024-02-14T04:30:17;2.42;;;1.80;;
25237;SDS011;13185;50.872;5.306;2024-02-14T04:32:43;3.65;;;2.25;;
25237;SDS011;13185;50.872;5.306;2024-02-14T04:35:09;3.38;;;2.22;;
25237;SDS011;13185;50.872;5.306;2024-02-14T04:37:34;2.92;;;2.22;;
25237;SDS011;13185;50.872;5.306;2024-02-14T04:40:00;4.75;;;2.45;;
25237;SDS011;13185;50.872;5.306;2024-02-14T04:42:26;2.88;;;1.98;;
25237;SDS011;13185;50.872;5.306;2024-02-14T04:44:51;2.83;;;1.90;;
25237;SDS011;13185;50.872;5.306;2024-02-14T04:47:17;2.45;;;1.98;;
25237;SDS011;13185;50.872;5.306;2024-02-14T04:49:42;6.07;;;2.30;;
25237;SDS011;13185;50.872;5.306;2024-02-14T04:52:08;3.25;;;2.00;;
25237;SDS011;13185;50.872;5.306;2024-02-14T04:54:33;4.50;;;2.28;;
25237;SDS011;13185;50.872;5.306;2024-02-14T04:56:59;3.40;;;2.00;;
25237;SDS011;13185;50.872;5.306;2024-02-14T04:59:24;3.17;;;1.60;;
25237;SDS011;13185;50.872;5.306;2024-02-14T05:01:50;3.35;;;1.80;;
25237;SDS011;13185;50.872;5.306;2024-02-14T05:04:16;3.72;;;2.30;;
25237;SDS011;13185;50.872;5.306;2024-02-14T05:06:42;4.35;;;1.65;;
25237;SDS011;13185;50.872;5.306;2024-02-14T05:09:08;6.20;;;2.55;;
25237;SDS011;13185;50.872;5.306;2024-02-14T05:11:36;3.45;;;2.15;;
25237;SDS011;13185;50.872;5.306;2024-02-14T05:14:01;4.28;;;2.30;;
25237;SDS011;13185;50.872;5.306;2024-02-14T05:16:27;3.15;;;2.15;;
25237;SDS011;13185;50.872;5.306;2024-02-14T05:18:52;3.40;;;2.72;;
25237;SDS011;13185;50.872;5.306;2024-02-14T05:21:21;4.45;;;2.55;;
25237;SDS011;13185;50.872;5.306;2024-02-14T05:23:47;4.30;;;2.78;;
25237;SDS011;13185;50.872;5.306;2024-02-14T05:26:12;4.07;;;2.38;;
25237;SDS011;13185;50.872;5.306;2024-02-14T05:28:38;4.07;;;2.80;;
25237;SDS011;13185;50.872;5.306;2024-02-14T05:31:04;4.32;;;2.60;;
25237;SDS011;13185;50.872;5.306;2024-02-14T05:33:30;2.88;;;2.50;;
25237;SDS011;13185;50.872;5.306;2024-02-14T05:35:56;6.75;;;2.70;;
25237;SDS011;13185;50.872;5.306;2024-02-14T05:38:21;6.07;;;3.00;;
25237;SDS011;13185;50.872;5.306;2024-02-14T05:40:47;3.20;;;2.33;;
25237;SDS011;13185;50.872;5.306;2024-02-14T05:43:13;5.50;;;2.70;;
25237;SDS011;13185;50.872;5.306;2024-02-14T05:45:39;4.68;;;2.88;;
25237;SDS011;13185;50.872;5.306;2024-02-14T05:48:06;4.03;;;2.78;;
25237;SDS011;13185;50.872;5.306;2024-02-14T05:50:31;5.78;;;2.60;;
25237;SDS011;13185;50.872;5.306;2024-02-14T05:52:57;5.00;;;3.55;;
25237;SDS011;13185;50.872;5.306;2024-02-14T05:55:23;4.45;;;3.08;;
25237;SDS011;13185;50.872;5.306;2024-02-14T05:57:52;7.03;;;2.67;;
25237;SDS011;13185;50.872;5.306;2024-02-14T06:00:19;3.40;;;2.88;;
25237;SDS011;13185;50.872;5.306;2024-02-14T06:02:46;5.13;;;2.70;;
25237;SDS011;13185;50.872;5.306;2024-02-14T06:05:12;4.28;;;2.60;;
25237;SDS011;13185;50.872;5.306;2024-02-14T06:07:38;5.40;;;3.00;;
25237;SDS011;13185;50.872;5.306;2024-02-14T06:10:05;8.13;;;3.08;;
25237;SDS011;13185;50.872;5.306;2024-02-14T06:12:32;4.53;;;2.33;;
25237;SDS011;13185;50.872;5.306;2024-02-14T06:14:58;4.85;;;2.65;;
25237;SDS011;13185;50.872;5.306;2024-02-14T06:17:23;4.68;;;2.80;;
25237;SDS011;13185;50.872;5.306;2024-02-14T06:19:49;7.05;;;3.03;;
25237;SDS011;13185;50.872;5.306;2024-02-14T06:22:15;4.03;;;2.85;;
25237;SDS011;13185;50.872;5.306;2024-02-14T06:24:40;3.10;;;2.17;;
25237;SDS011;13185;50.872;5.306;2024-02-14T06:27:06;5.85;;;2.58;;
25237;SDS011;13185;50.872;5.306;2024-02-14T06:29:32;4.70;;;2.25;;
25237;SDS011;13185;50.872;5.306;2024-02-14T06:31:57;4.88;;;2.90;;
25237;SDS011;13185;50.872;5.306;2024-02-14T06:34:23;5.57;;;2.33;;
25237;SDS011;13185;50.872;5.306;2024-02-14T06:36:48;5.72;;;2.53;;
25237;SDS011;13185;50.872;5.306;2024-02-14T06:39:14;3.92;;;2.30;;
25237;SDS011;13185;50.872;5.306;2024-02-14T06:41:40;3.00;;;2.10;;
25237;SDS011;13185;50.872;5.306;2024-02-14T06:44:06;2.80;;;2.10;;
25237;SDS011;13185;50.872;5.306;2024-02-14T06:46:31;2.97;;;2.60;;
25237;SDS011;13185;50.872;5.306;2024-02-14T06:48:57;6.28;;;2.35;;
25237;SDS011;13185;50.872;5.306;2024-02-14T06:51:22;3.90;;;2.33;;
25237;SDS011;13185;50.872;5.306;2024-02-14T06:53:49;7.43;;;2.95;;
25237;SDS011;13185;50.872;5.306;2024-02-14T06:56:15;3.17;;;2.30;;
25237;SDS011;13185;50.872;5.306;2024-02-14T06:58:41;2.70;;;2.20;;
25237;SDS011;13185;50.872;5.306;2024-02-14T07:01:07;3.25;;;2.08;;
25237;SDS011;13185;50.872;5.306;2024-02-14T07:03:32;4.57;;;1.80;;
25237;SDS011;13185;50.872;5.306;2024-02-14T07:05:58;2.70;;;1.95;;
25237;SDS011;13185;50.872;5.306;2024-02-14T07:08:24;5.22;;;2.10;;
25237;SDS011;13185;50.872;5.306;2024-02-14T07:10:52;3.75;;;2.05;;
25237;SDS011;13185;50.872;5.306;2024-02-14T07:13:18;2.30;;;1.70;;
25237;SDS011;13185;50.872;5.306;2024-02-14T07:15:43;5.65;;;1.70;;
25237;SDS011;13185;50.872;5.306;2024-02-14T07:18:08;2.97;;;1.77;;
25237;SDS011;13185;50.872;5.306;2024-02-14T07:20:35;3.83;;;1.92;;
25237;SDS011;13185;50.872;5.306;2024-02-14T07:23:01;2.22;;;1.60;;
25237;SDS011;13185;50.872;5.306;2024-02-14T07:25:26;5.05;;;2.17;;
25237;SDS011;13185;50.872;5.306;2024-02-14T07:27:52;2.97;;;1.77;;
25237;SDS011;13185;50.872;5.306;2024-02-14T07:30:18;6.07;;;1.83;;
25237;SDS011;13185;50.872;5.306;2024-02-14T07:32:44;5.47;;;2.30;;
25237;SDS011;13185;50.872;5.306;2024-02-14T07:35:10;4.13;;;1.77;;
25237;SDS011;13185;50.872;5.306;2024-02-14T07:37:36;3.70;;;1.65;;
25237;SDS011;13185;50.872;5.306;2024-02-14T07:40:02;3.33;;;1.88;;
25237;SDS011;13185;50.872;5.306;2024-02-14T07:42:28;4.30;;;2.10;;
25237;SDS011;13185;50.872;5.306;2024-02-14T07:44:53;2.42;;;1.67;;
25237;SDS011;13185;50.872;5.306;2024-02-14T07:47:21;1.95;;;1.50;;
25237;SDS011;13185;50.872;5.306;2024-02-14T07:49:47;3.28;;;1.27;;
25237;SDS011;13185;50.872;5.306;2024-02-14T07:52:13;1.98;;;1.58;;
25237;SDS011;13185;50.872;5.306;2024-02-14T07:54:38;2.95;;;1.33;;
25237;SDS011;13185;50.872;5.306;2024-02-14T07:57:04;2.95;;;1.80;;
25237;SDS011;13185;50.872;5.306;2024-02-14T07:59:29;3.08;;;1.63;;
25237;SDS011;13185;50.872;5.306;2024-02-14T08:01:55;3.60;;;1.73;;
25237;SDS011;13185;50.872;5.306;2024-02-14T08:04:23;3.42;;;2.38;;
25237;SDS011;13185;50.872;5.306;2024-02-14T08:06:48;3.95;;;2.00;;
25237;SDS011;13185;50.872;5.306;2024-02-14T08:09:16;3.80;;;1.58;;
25237;SDS011;13185;50.872;5.306;2024-02-14T08:11:42;3.03;;;1.58;;
25237;SDS011;13185;50.872;5.306;2024-02-14T08:14:08;3.80;;;2.00;;
25237;SDS011;13185;50.872;5.306;2024-02-14T08:16:33;6.45;;;1.80;;
25237;SDS011;13185;50.872;5.306;2024-02-14T08:18:59;2.60;;;1.95;;
25237;SDS011;13185;50.872;5.306;2024-02-14T08:21:25;4.78;;;1.98;;
25237;SDS011;13185;50.872;5.306;2024-02-14T08:23:51;2.30;;;1.70;;
25237;SDS011;13185;50.872;5.306;2024-02-14T08:26:17;4.90;;;2.28;;
25237;SDS011;13185;50.872;5.306;2024-02-14T08:28:43;3.40;;;1.90;;
25237;SDS011;13185;50.872;5.306;2024-02-14T08:31:12;4.65;;;1.80;;
25237;SDS011;13185;50.872;5.306;2024-02-14T08:33:37;2.80;;;1.73;;
25237;SDS011;13185;50.872;5.306;2024-02-14T08:36:04;4.43;;;1.85;;
25237;SDS011;13185;50.872;5.306;2024-02-14T08:38:30;4.47;;;2.05;;
25237;SDS011;13185;50.872;5.306;2024-02-14T08:40:55;4.60;;;1.52;;
25237;SDS011;13185;50.872;5.306;2024-02-14T08:43:21;3.55;;;1.35;;
25237;SDS011;13185;50.872;5.306;2024-02-14T08:45:49;3.40;;;1.48;;
25237;SDS011;13185;50.872;5.306;2024-02-14T08:48:16;2.83;;;1.58;;
25237;SDS011;13185;50.872;5.306;2024-02-14T08:50:42;4.00;;;1.50;;
25237;SDS011;13185;50.872;5.306;2024-02-14T08:53:08;4.82;;;1.70;;
25237;SDS011;13185;50.872;5.306;2024-02-14T08:55:34;3.75;;;1.63;;
25237;SDS011;13185;50.872;5.306;2024-02-14T08:58:01;2.97;;;1.27;;
25237;SDS011;13185;50.872;5.306;2024-02-14T09:00:27;3.40;;;1.40;;
25237;SDS011;13185;50.872;5.306;2024-02-14T09:02:52;4.85;;;1.85;;
25237;SDS011;13185;50.872;5.306;2024-02-14T09:05:18;5.03;;;1.67;;
25237;SDS011;13185;50.872;5.306;2024-02-14T09:07:44;4.78;;;1.48;;
25237;SDS011;13185;50.872;5.306;2024-02-14T09:10:09;2.53;;;1.20;;
25237;SDS011;13185;50.872;5.306;2024-02-14T09:12:38;4.20;;;1.58;;
25237;SDS011;13185;50.872;5.306;2024-02-14T09:15:04;6.43;;;1.50;;
25237;SDS011;13185;50.872;5.306;2024-02-14T09:17:30;5.45;;;1.65;;
25237;SDS011;13185;50.872;5.306;2024-02-14T09:19:56;3.60;;;1.50;;
25237;SDS011;13185;50.872;5.306;2024-02-14T09:22:22;2.63;;;1.50;;
25237;SDS011;13185;50.872;5.306;2024-02-14T09:24:47;2.17;;;1.30;;
25237;SDS011;13185;50.872;5.306;2024-02-14T09:27:13;6.20;;;1.30;;
25237;SDS011;13185;50.872;5.306;2024-02-14T09:29:39;2.35;;;1.30;;
25237;SDS011;13185;50.872;5.306;2024-02-14T09:32:05;4.28;;;1.35;;
25237;SDS011;13185;50.872;5.306;2024-02-14T09:34:30;2.55;;;1.58;;
25237;SDS011;13185;50.872;5.306;2024-02-14T09:36:56;3.13;;;1.25;;
25237;SDS011;13185;50.872;5.306;2024-02-14T09:39:24;1.83;;;1.27;;
25237;SDS011;13185;50.872;5.306;2024-02-14T09:41:54;2.55;;;1.25;;
25237;SDS011;13185;50.872;5.306;2024-02-14T09:44:22;2.72;;;1.02;;
25237;SDS011;13185;50.872;5.306;2024-02-14T09:46:48;1.63;;;0.90;;
25237;SDS011;13185;50.872;5.306;2024-02-14T09:49:15;3.60;;;1.13;;
25237;SDS011;13185;50.872;5.306;2024-02-14T09:51:42;2.28;;;1.08;;
25237;SDS011;13185;50.872;5.306;2024-02-14T09:54:11;2.47;;;0.80;;
25237;SDS011;13185;50.872;5.306;2024-02-14T09:56:37;3.55;;;1.23;;
25237;SDS011;13185;50.872;5.306;2024-02-14T09:59:03;1.13;;;0.80;;
25237;SDS011;13185;50.872;5.306;2024-02-14T10:01:31;2.42;;;1.25;;
25237;SDS011;13185;50.872;5.306;2024-02-14T10:03:57;2.58;;;0.90;;
25237;SDS011;13185;50.872;5.306;2024-02-14T10:06:22;1.27;;;0.75;;
25237;SDS011;13185;50.872;5.306;2024-02-14T10:08:51;1.27;;;0.70;;
25237;SDS011;13185;50.872;5.306;2024-02-14T10:11:17;0.80;;;0.73;;
25237;SDS011;13185;50.872;5.306;2024-02-14T10:13:46;1.38;;;0.82;;
25237;SDS011;13185;50.872;5.306;2024-02-14T10:16:14;1.00;;;0.90;;
25237;SDS011;13185;50.872;5.306;2024-02-14T10:18:39;1.85;;;0.70;;
25237;SDS011;13185;50.872;5.306;2024-02-14T10:21:05;3.55;;;1.23;;
25237;SDS011;13185;50.872;5.306;2024-02-14T10:23:31;1.50;;;0.90;;
25237;SDS011;13185;50.872;5.306;2024-02-14T10:25:57;1.15;;;0.80;;
25237;SDS011;13185;50.872;5.306;2024-02-14T10:28:24;1.30;;;0.70;;
25237;SDS011;13185;50.872;5.306;2024-02-14T10:30:50;1.10;;;0.73;;
25237;SDS011;13185;50.872;5.306;2024-02-14T10:33:16;1.52;;;0.60;;
25237;SDS011;13185;50.872;5.306;2024-02-14T10:35:42;3.83;;;0.70;;
25237;SDS011;13185;50.872;5.306;2024-02-14T10:38:09;1.63;;;0.63;;
25237;SDS011;13185;50.872;5.306;2024-02-14T10:40:35;0.70;;;0.55;;
25237;SDS011;13185;50.872;5.306;2024-02-14T10:43:01;0.80;;;0.40;;
25237;SDS011;13185;50.872;5.306;2024-02-14T10:45:27;1.73;;;0.60;;
25237;SDS011;13185;50.872;5.306;2024-02-14T10:47:53;1.00;;;0.60;;
25237;SDS011;13185;50.872;5.306;2024-02-14T10:50:22;1.38;;;0.63;;
25237;SDS011;13185;50.872;5.306;2024-02-14T10:52:49;1.63;;;0.40;;
25237;SDS011;13185;50.872;5.306;2024-02-14T10:55:21;1.27;;;0.70;;
25237;SDS011;13185;50.872;5.306;2024-02-14T10:57:53;1.02;;;0.60;;
25237;SDS011;13185;50.872;5.306;2024-02-14T11:00:19;1.10;;;0.50;;
25237;SDS011;13185;50.872;5.306;2024-02-14T11:02:45;2.47;;;0.65;;
25237;SDS011;13185;50.872;5.306;2024-02-14T11:05:14;1.10;;;0.70;;
25237;SDS011;13185;50.872;5.306;2024-02-14T11:07:44;1.27;;;0.73;;
25237;SDS011;13185;50.872;5.306;2024-02-14T11:10:15;0.98;;;0.50;;
25237;SDS011;13185;50.872;5.306;2024-02-14T11:12:42;0.85;;;0.55;;
25237;SDS011;13185;50.872;5.306;2024-02-14T11:17:45;1.13;;;0.70;;
25237;SDS011;13185;50.872;5.306;2024-02-14T11:20:11;1.40;;;0.80;;
25237;SDS011;13185;50.872;5.306;2024-02-14T11:25:46;1.98;;;0.70;;
25237;SDS011;13185;50.872;5.306;2024-02-14T11:30:39;1.15;;;0.57;;
25237;SDS011;13185;50.872;5.306;2024-02-14T11:33:13;0.70;;;0.60;;
25237;SDS011;13185;50.872;5.306;2024-02-14T11:35:40;1.58;;;0.68;;
25237;SDS011;13185;50.872;5.306;2024-02-14T11:38:06;1.20;;;0.70;;
25237;SDS011;13185;50.872;5.306;2024-02-14T11:40:32;0.82;;;0.65;;
25237;SDS011;13185;50.872;5.306;2024-02-14T11:42:58;0.77;;;0.60;;
25237;SDS011;13185;50.872;5.306;2024-02-14T11:45:23;2.08;;;0.60;;
25237;SDS011;13185;50.872;5.306;2024-02-14T11:47:49;0.90;;;0.43;;
25237;SDS011;13185;50.872;5.306;2024-02-14T11:50:16;3.33;;;0.40;;
25237;SDS011;13185;50.872;5.306;2024-02-14T11:52:43;0.80;;;0.50;;
25237;SDS011;13185;50.872;5.306;2024-02-14T11:55:09;1.08;;;0.45;;
25237;SDS011;13185;50.872;5.306;2024-02-14T11:57:35;1.30;;;0.20;;
25237;SDS011;13185;50.872;5.306;2024-02-14T12:00:01;0.60;;;0.30;;
25237;SDS011;13185;50.872;5.306;2024-02-14T12:02:27;1.15;;;0.43;;
25237;SDS011;13185;50.872;5.306;2024-02-14T12:04:54;0.73;;;0.32;;
25237;SDS011;13185;50.872;5.306;2024-02-14T12:07:21;0.75;;;0.30;;
25237;SDS011;13185;50.872;5.306;2024-02-14T12:09:47;0.30;;;0.30;;
25237;SDS011;13185;50.872;5.306;2024-02-14T12:12:14;4.38;;;0.52;;
25237;SDS011;13185;50.872;5.306;2024-02-14T12:14:43;0.57;;;0.40;;
25237;SDS011;13185;50.872;5.306;2024-02-14T12:17:09;1.25;;;0.20;;
25237;SDS011;13185;50.872;5.306;2024-02-14T12:19:35;1.65;;;0.30;;
25237;SDS011;13185;50.872;5.306;2024-02-14T12:22:08;0.55;;;0.28;;
25237;SDS011;13185;50.872;5.306;2024-02-14T12:24:43;1.10;;;0.13;;
25237;SDS011;13185;50.872;5.306;2024-02-14T12:27:09;1.00;;;0.20;;
25237;SDS011;13185;50.872;5.306;2024-02-14T12:29:35;1.67;;;0.25;;
25237;SDS011;13185;50.872;5.306;2024-02-14T12:32:07;1.20;;;0.10;;
25237;SDS011;13185;50.872;5.306;2024-02-14T12:34:33;0.40;;;0.10;;
25237;SDS011;13185;50.872;5.306;2024-02-14T12:36:59;0.63;;;0.10;;
25237;SDS011;13185;50.872;5.306;2024-02-14T12:39:26;0.43;;;0.10;;
25237;SDS011;13185;50.872;5.306;2024-02-14T12:41:52;0.50;;;0.30;;
25237;SDS011;13185;50.872;5.306;2024-02-14T12:44:17;0.30;;;0.20;;
25237;SDS011;13185;50.872;5.306;2024-02-14T12:46:43;0.47;;;0.15;;
25237;SDS011;13185;50.872;5.306;2024-02-14T12:49:09;0.20;;;0.10;;
25237;SDS011;13185;50.872;5.306;2024-02-14T12:51:34;0.45;;;0.20;;
25237;SDS011;13185;50.872;5.306;2024-02-14T12:54:03;1.15;;;0.30;;
25237;SDS011;13185;50.872;5.306;2024-02-14T12:56:29;0.60;;;0.20;;
25237;SDS011;13185;50.872;5.306;2024-02-14T12:58:55;0.63;;;0.20;;
25237;SDS011;13185;50.872;5.306;2024-02-14T13:01:20;0.80;;;0.20;;
25237;SDS011;13185;50.872;5.306;2024-02-14T13:03:46;0.20;;;0.10;;
25237;SDS011;13185;50.872;5.306;2024-02-14T13:06:11;0.55;;;0.38;;
25237;SDS011;13185;50.872;5.306;2024-02-14T13:08:39;0.65;;;0.40;;
25237;SDS011;13185;50.872;5.306;2024-02-14T13:11:05;1.33;;;0.40;;
25237;SDS011;13185;50.872;5.306;2024-02-14T13:13:33;1.40;;;0.50;;
25237;SDS011;13185;50.872;5.306;2024-02-14T13:16:00;1.50;;;0.60;;
25237;SDS011;13185;50.872;5.306;2024-02-14T13:18:25;2.25;;;0.50;;
25237;SDS011;13185;50.872;5.306;2024-02-14T13:20:51;1.48;;;0.50;;
25237;SDS011;13185;50.872;5.306;2024-02-14T13:23:22;0.63;;;0.40;;
25237;SDS011;13185;50.872;5.306;2024-02-14T13:25:48;1.52;;;0.47;;
25237;SDS011;13185;50.872;5.306;2024-02-14T13:28:14;0.75;;;0.43;;
25237;SDS011;13185;50.872;5.306;2024-02-14T13:30:40;1.40;;;0.60;;
25237;SDS011;13185;50.872;5.306;2024-02-14T13:33:05;0.70;;;0.40;;
25237;SDS011;13185;50.872;5.306;2024-02-14T13:35:31;1.80;;;0.63;;
25237;SDS011;13185;50.872;5.306;2024-02-14T13:37:57;0.65;;;0.65;;
25237;SDS011;13185;50.872;5.306;2024-02-14T13:40:23;2.53;;;0.55;;
25237;SDS011;13185;50.872;5.306;2024-02-14T13:42:49;1.08;;;0.68;;
25237;SDS011;13185;50.872;5.306;2024-02-14T13:45:14;2.35;;;0.32;;
25237;SDS011;13185;50.872;5.306;2024-02-14T13:47:41;1.08;;;0.30;;
25237;SDS011;13185;50.872;5.306;2024-02-14T13:50:08;1.63;;;0.40;;
25237;SDS011;13185;50.872;5.306;2024-02-14T13:52:35;0.57;;;0.40;;
25237;SDS011;13185;50.872;5.306;2024-02-14T13:55:04;1.23;;;0.50;;
25237;SDS011;13185;50.872;5.306;2024-02-14T13:57:37;0.60;;;0.50;;
25237;SDS011;13185;50.872;5.306;2024-02-14T14:00:04;0.90;;;0.55;;
25237;SDS011;13185;50.872;5.306;2024-02-14T14:02:37;1.00;;;0.65;;
25237;SDS011;13185;50.872;5.306;2024-02-14T14:05:11;1.95;;;0.50;;
25237;SDS011;13185;50.872;5.306;2024-02-14T14:07:40;1.60;;;0.70;;
25237;SDS011;13185;50.872;5.306;2024-02-14T14:10:06;0.77;;;0.47;;
25237;SDS011;13185;50.872;5.306;2024-02-14T14:12:33;0.88;;;0.45;;
25237;SDS011;13185;50.872;5.306;2024-02-14T14:14:59;2.03;;;0.90;;
25237;SDS011;13185;50.872;5.306;2024-02-14T14:17:25;2.28;;;0.75;;
25237;SDS011;13185;50.872;5.306;2024-02-14T14:19:51;0.93;;;0.75;;
25237;SDS011;13185;50.872;5.306;2024-02-14T14:22:17;0.68;;;0.68;;
25237;SDS011;13185;50.872;5.306;2024-02-14T14:24:42;0.80;;;0.80;;
25237;SDS011;13185;50.872;5.306;2024-02-14T14:27:08;0.70;;;0.57;;
25237;SDS011;13185;50.872;5.306;2024-02-14T14:29:43;1.50;;;1.00;;
25237;SDS011;13185;50.872;5.306;2024-02-14T14:32:09;0.88;;;0.70;;
25237;SDS011;13185;50.872;5.306;2024-02-14T14:34:35;2.22;;;0.60;;
25237;SDS011;13185;50.872;5.306;2024-02-14T14:37:01;3.03;;;0.90;;
25237;SDS011;13185;50.872;5.306;2024-02-14T14:39:27;1.20;;;0.90;;
25237;SDS011;13185;50.872;5.306;2024-02-14T14:41:53;1.25;;;0.90;;
25237;SDS011;13185;50.872;5.306;2024-02-14T14:44:22;1.20;;;0.88;;
25237;SDS011;13185;50.872;5.306;2024-02-14T14:46:47;1.23;;;0.82;;
25237;SDS011;13185;50.872;5.306;2024-02-14T14:49:13;1.50;;;0.90;;
25237;SDS011;13185;50.872;5.306;2024-02-14T14:51:38;1.30;;;1.00;;